Time;durP1;ratioP1;P1;durP2;ratioP2;P2;SDS_P1;SDS_P2;PMS_P1;PMS_P2;Temp;Humidity;BMP_temperature;BMP_pressure;BME280_temperature;BME280_humidity;BME280_pressure;Samples;Min_cycle;Max_cycle;Signal;HPM_P1;HPM_P2
2020/12/05 00:01:53;;;;;;;;;;;;;;;;;;5054004;28;20389;-84
2020/12/05 00:04:19;;;;;;;;;;;;;;;;;;5059126;28;20330;-83
2020/12/05 00:06:45;;;;;;;;;;;;;;;;;;5061145;28;20372;-85
2020/12/05 00:09:12;;;;;;;;;;;;;;;;;;5057378;28;20405;-85
2020/12/05 00:11:38;;;;;;;;;;;;;;;;;;5056944;28;20381;-85
2020/12/05 00:14:04;;;;;;;;;;;;;;;;;;5059031;28;20833;-85
2020/12/05 00:16:37;;;;;;;;;;;;;;;;;;5054153;28;20383;-85
2020/12/05 00:19:03;;;;;;;;;;;;;;;;;;5057548;28;20404;-85
2020/12/05 00:21:30;;;;;;;;;;;;;;;;;;5056995;28;20408;-84
2020/12/05 00:23:56;;;;;;;;;;;;;;;;;;5040558;28;20755;-85
2020/12/05 00:26:23;;;;;;;;;;;;;;;;;;5042578;28;20389;-84
2020/12/05 00:28:49;;;;;;;;;;;;;;;;;;5055776;28;20362;-85
2020/12/05 00:31:16;;;;;;;;;;;;;;;;;;5057948;28;20370;-84
2020/12/05 00:33:42;;;;;;;;;;;;;;;;;;5057747;28;20388;-84
2020/12/05 00:36:09;;;;;;;;;;;;;;;;;;5055652;28;20864;-84
2020/12/05 00:38:35;;;;;;;;;;;;;;;;;;5061357;28;20407;-83
2020/12/05 00:41:03;;;;;;;;;;;;;;;;;;5067916;28;20822;-84
2020/12/05 00:43:30;;;;;;;;;;;;;;;;;;5064411;28;20888;-83
2020/12/05 00:45:56;;;;;;;;;;;;;;;;;;5058252;28;20388;-83
2020/12/05 00:48:23;;;;;;;;;;;;;;;;;;5055058;28;20390;-84
2020/12/05 00:50:49;;;;;;;;;;;;;;;;;;5053558;28;20425;-84
2020/12/05 00:53:15;;;;;;;;;;;;;;;;;;5056729;28;20396;-84
2020/12/05 00:55:42;;;;;;;;;;;;;;;;;;5057391;28;20437;-83
2020/12/05 00:58:08;;;;;;;;;;;;;;;;;;5037573;28;20421;-84
2020/12/05 01:00:35;;;;;;;;;;;;;;;;;;5041209;28;20435;-83
2020/12/05 01:03:01;;;;;;;;;;;;;;;;;;5052652;28;20871;-83
2020/12/05 01:05:29;;;;;;;;;;;;;;;;;;5056707;28;20434;-83
2020/12/05 01:07:55;;;;;;;;;;;;;;;;;;5052541;28;20795;-84
2020/12/05 01:10:22;;;;;;;;;;;;;;;;;;5061847;28;20404;-83
2020/12/05 01:12:48;;;;;;;;;;;;;;;;;;5056478;28;20397;-83
2020/12/05 01:15:15;;;;;;;;;;;;;;;;;;5048587;28;20755;-82
2020/12/05 01:17:41;;;;;;;;;;;;;;;;;;5048315;28;20453;-82
2020/12/05 01:20:07;;;;;;;;;;;;;;;;;;5064057;28;20430;-82
2020/12/05 01:22:34;;;;;;;;;;;;;;;;;;5052701;28;20441;-83
2020/12/05 01:25:00;;;;;;;;;;;;;;;;;;5057471;28;20392;-85
2020/12/05 01:27:26;;;;;;;;;;;;;;;;;;5058259;28;20381;-85
2020/12/05 01:29:53;;;;;;;;;;;;;;;;;;5051741;28;20880;-84
2020/12/05 01:32:19;;;;;;;;;;;;;;;;;;5060348;28;20378;-84
2020/12/05 01:34:46;;;;;;;;;;;;;;;;;;5051016;28;20804;-85
2020/12/05 01:37:12;;;;;;;;;;;;;;;;;;5046467;28;20439;-85
2020/12/05 01:39:39;;;;;;;;;;;;;;;;;;5057293;28;20458;-85
2020/12/05 01:42:05;;;;;;;;;;;;;;;;;;5051939;28;20899;-85
2020/12/05 01:44:31;;;;;;;;;;;;;;;;;;5057117;28;20388;-85
2020/12/05 01:46:58;;;;;;;;;;;;;;;;;;5050742;28;20388;-85
2020/12/05 01:49:24;;;;;;;;;;;;;;;;;;5055430;28;20399;-85
2020/12/05 01:51:50;;;;;;;;;;;;;;;;;;5057531;28;20906;-84
2020/12/05 01:54:17;;;;;;;;;;;;;;;;;;5057211;28;20380;-85
2020/12/05 01:56:43;;;;;;;;;;;;;;;;;;5054529;28;20385;-84
2020/12/05 01:59:09;;;;;;;;;;;;;;;;;;5048262;28;20391;-82
2020/12/05 02:01:36;;;;;;;;;;;;;;;;;;5068098;28;20396;-85
2020/12/05 02:04:02;;;;;;;;;;;;;;;;;;5050498;28;20388;-85
2020/12/05 02:06:29;;;;;;;;;;;;;;;;;;5040099;28;20391;-85
2020/12/05 02:08:55;;;;;;;;;;;;;;;;;;5042869;28;20407;-85
2020/12/05 02:11:21;;;;;;;;;;;;;;;;;;5058168;28;20859;-85
2020/12/05 02:13:48;;;;;;;;;;;;;;;;;;5054802;28;20390;-84
2020/12/05 02:16:15;;;;;;;;;;;;;;;;;;5055251;28;20406;-85
2020/12/05 02:18:41;;;;;;;;;;;;;;;;;;5039833;28;20509;-85
2020/12/05 02:21:08;;;;;;;;;;;;;;;;;;5039101;28;20414;-85
2020/12/05 02:23:34;;;;;;;;;;;;;;;;;;5052622;28;20384;-85
2020/12/05 02:26:00;;;;;;;;;;;;;;;;;;5075532;28;20372;-85
2020/12/05 02:28:27;;;;;;;;;;;;;;;;;;5068573;28;20442;-85
2020/12/05 02:30:53;;;;;;;;;;;;;;;;;;5065373;28;20380;-85
2020/12/05 02:33:19;;;;;;;;;;;;;;;;;;5056195;28;20381;-85
2020/12/05 02:35:46;;;;;;;;;;;;;;;;;;5062243;28;20384;-85
2020/12/05 02:38:12;;;;;;;;;;;;;;;;;;5059391;28;20394;-85
2020/12/05 02:40:39;;;;;;;;;;;;;;;;;;5062175;28;20411;-85
2020/12/05 02:43:05;;;;;;;;;;;;;;;;;;5064845;28;20380;-85
2020/12/05 02:45:32;;;;;;;;;;;;;;;;;;5067817;28;20381;-84
2020/12/05 02:48:01;;;;;;;;;;;;;;;;;;5062164;28;20395;-82
2020/12/05 02:50:27;;;;;;;;;;;;;;;;;;5058446;28;20405;-85
2020/12/05 02:52:53;;;;;;;;;;;;;;;;;;5064481;28;20384;-85
2020/12/05 02:55:20;;;;;;;;;;;;;;;;;;5057404;28;20391;-84
2020/12/05 02:57:46;;;;;;;;;;;;;;;;;;5066232;28;20381;-85
2020/12/05 03:00:13;;;;;;;;;;;;;;;;;;5069912;28;20411;-85
2020/12/05 03:02:39;;;;;;;;;;;;;;;;;;5059198;28;20415;-85
2020/12/05 03:05:06;;;;;;;;;;;;;;;;;;5058950;28;20380;-85
2020/12/05 03:07:32;;;;;;;;;;;;;;;;;;5067933;28;20383;-85
2020/12/05 03:09:59;;;;;;;;;;;;;;;;;;5057269;28;20429;-85
2020/12/05 03:12:25;;;;;;;;;;;;;;;;;;5057952;28;20409;-84
2020/12/05 03:14:52;;;;;;;;;;;;;;;;;;5058467;28;20754;-86
2020/12/05 03:17:18;;;;;;;;;;;;;;;;;;5060927;28;20408;-85
2020/12/05 03:19:44;;;;;;;;;;;;;;;;;;5058384;28;20411;-84
2020/12/05 03:22:11;;;;;;;;;;;;;;;;;;5050376;28;20390;-85
2020/12/05 03:24:37;;;;;;;;;;;;;;;;;;5064245;28;20384;-83
2020/12/05 03:27:03;;;;;;;;;;;;;;;;;;5084704;28;20391;-85
2020/12/05 03:29:30;;;;;;;;;;;;;;;;;;5060653;28;20407;-83
2020/12/05 03:31:59;;;;;;;;;;;;;;;;;;5071802;28;20380;-85
2020/12/05 03:34:30;;;;;;;;;;;;;;;;;;5085886;28;20463;-84
2020/12/05 03:36:57;;;;;;;;;;;;;;;;;;5066441;28;20393;-85
2020/12/05 03:39:23;;;;;;;;;;;;;;;;;;5052406;28;20402;-85
2020/12/05 03:41:50;;;;;;;;;;;;;;;;;;5060251;28;20404;-85
2020/12/05 03:44:16;;;;;;;;;;;;;;;;;;5064965;28;20377;-84
2020/12/05 03:46:42;;;;;;;;;;;;;;;;;;5064822;28;20379;-85
2020/12/05 03:49:09;;;;;;;;;;;;;;;;;;5054622;28;20887;-85
2020/12/05 03:51:35;;;;;;;;;;;;;;;;;;5062195;28;20391;-84
2020/12/05 03:54:01;;;;;;;;;;;;;;;;;;5053206;28;20387;-85
2020/12/05 03:56:28;;;;;;;;;;;;;;;;;;5053851;28;20376;-85
2020/12/05 03:58:54;;;;;;;;;;;;;;;;;;5065733;28;20400;-85
2020/12/05 04:01:22;;;;;;;;;;;;;;;;;;5063409;28;20881;-85
2020/12/05 04:03:48;;;;;;;;;;;;;;;;;;5065030;28;20434;-86
2020/12/05 04:06:14;;;;;;;;;;;;;;;;;;5065887;28;20395;-85
2020/12/05 04:08:41;;;;;;;;;;;;;;;;;;5059125;28;20457;-86
2020/12/05 04:11:07;;;;;;;;;;;;;;;;;;5065416;28;20376;-85
2020/12/05 04:13:33;;;;;;;;;;;;;;;;;;5065894;28;20437;-86
2020/12/05 04:16:00;;;;;;;;;;;;;;;;;;5051017;28;20441;-85
2020/12/05 04:18:26;;;;;;;;;;;;;;;;;;5046622;28;20957;-86
2020/12/05 04:20:53;;;;;;;;;;;;;;;;;;5052060;28;20400;-86
2020/12/05 04:23:19;;;;;;;;;;;;;;;;;;5048323;28;20394;-87
2020/12/05 04:25:46;;;;;;;;;;;;;;;;;;5051812;28;20487;-86
2020/12/05 04:28:12;;;;;;;;;;;;;;;;;;5059678;28;20906;-86
2020/12/05 04:30:38;;;;;;;;;;;;;;;;;;5056255;28;20453;-86
2020/12/05 04:33:05;;;;;;;;;;;;;;;;;;5048844;28;20421;-87
2020/12/05 04:35:31;;;;;;;;;;;;;;;;;;5070765;28;20369;-86
2020/12/05 04:37:57;;;;;;;;;;;;;;;;;;5073174;28;20388;-86
2020/12/05 04:40:24;;;;;;;;;;;;;;;;;;5053403;28;20418;-86
2020/12/05 04:42:50;;;;;;;;;;;;;;;;;;5075056;28;20372;-84
2020/12/05 04:45:17;;;;;;;;;;;;;;;;;;5056488;28;20394;-86
2020/12/05 04:47:43;;;;;;;;;;;;;;;;;;5056521;28;20385;-87
2020/12/05 04:50:10;;;;;;;;;;;;;;;;;;5051752;28;20854;-85
2020/12/05 04:52:37;;;;;;;;;;;;;;;;;;5051148;28;20399;-86
2020/12/05 04:55:03;;;;;;;;;;;;;;;;;;5049141;28;20441;-87
2020/12/05 04:57:29;;;;;;;;;;;;;;;;;;5069156;28;20377;-87
2020/12/05 04:59:56;;;;;;;;;;;;;;;;;;5062872;28;20404;-87
2020/12/05 05:02:22;;;;;;;;;;;;;;;;;;5049139;28;20417;-87
2020/12/05 05:04:49;;;;;;;;;;;;;;;;;;5052777;28;20394;-86
2020/12/05 05:07:16;;;;;;;;;;;;;;;;;;5053333;28;20423;-86
2020/12/05 05:09:42;;;;;;;;;;;;;;;;;;5068897;28;20400;-86
2020/12/05 05:12:09;;;;;;;;;;;;;;;;;;5074013;28;20379;-86
2020/12/05 05:14:35;;;;;;;;;;;;;;;;;;5045711;28;20881;-86
2020/12/05 05:17:02;;;;;;;;;;;;;;;;;;5054636;28;20375;-86
2020/12/05 05:19:28;;;;;;;;;;;;;;;;;;5041376;28;20600;-87
2020/12/05 05:21:54;;;;;;;;;;;;;;;;;;5058438;28;20410;-87
2020/12/05 05:24:21;;;;;;;;;;;;;;;;;;5059704;28;20388;-87
2020/12/05 05:26:47;;;;;;;;;;;;;;;;;;5047375;28;20395;-86
2020/12/05 05:29:13;;;;;;;;;;;;;;;;;;5059780;28;20412;-87
2020/12/05 05:31:48;;;;;;;;;;;;;;;;;;5061715;28;20391;-86
2020/12/05 05:34:14;;;;;;;;;;;;;;;;;;5073337;28;20388;-85
2020/12/05 05:36:42;;;;;;;;;;;;;;;;;;5067191;28;20381;-87
2020/12/05 05:39:11;;;;;;;;;;;;;;;;;;5056667;28;20506;-87
2020/12/05 05:41:38;;;;;;;;;;;;;;;;;;5063627;28;20408;-86
2020/12/05 05:44:05;;;;;;;;;;;;;;;;;;5044012;28;20890;-86
2020/12/05 05:46:31;;;;;;;;;;;;;;;;;;5054080;28;20388;-86
2020/12/05 05:48:57;;;;;;;;;;;;;;;;;;5058293;28;20406;-86
2020/12/05 05:51:24;;;;;;;;;;;;;;;;;;5056987;28;20430;-87
2020/12/05 05:53:50;;;;;;;;;;;;;;;;;;5055797;28;20835;-86
2020/12/05 05:56:16;;;;;;;;;;;;;;;;;;5051808;28;20394;-85
2020/12/05 05:58:43;;;;;;;;;;;;;;;;;;5043561;28;20441;-86
2020/12/05 06:01:09;;;;;;;;;;;;;;;;;;5062820;28;20760;-87
2020/12/05 06:03:36;;;;;;;;;;;;;;;;;;5065490;28;20380;-86
2020/12/05 06:06:04;;;;;;;;;;;;;;;;;;5074213;28;20388;-86
2020/12/05 06:08:30;;;;;;;;;;;;;;;;;;5067690;28;20415;-86
2020/12/05 06:10:57;;;;;;;;;;;;;;;;;;5059656;28;20391;-87
2020/12/05 06:13:23;;;;;;;;;;;;;;;;;;5050483;28;20390;-86
2020/12/05 06:15:50;;;;;;;;;;;;;;;;;;5054711;28;20384;-87
2020/12/05 06:18:16;;;;;;;;;;;;;;;;;;5065210;28;20384;-86
2020/12/05 06:20:42;;;;;;;;;;;;;;;;;;5057468;28;20450;-87
2020/12/05 06:23:09;;;;;;;;;;;;;;;;;;5059503;28;20421;-86
2020/12/05 06:25:35;;;;;;;;;;;;;;;;;;5060207;28;20384;-87
2020/12/05 06:28:01;;;;;;;;;;;;;;;;;;5063145;28;20898;-88
2020/12/05 06:30:28;;;;;;;;;;;;;;;;;;5056343;28;20403;-87
2020/12/05 06:32:55;;;;;;;;;;;;;;;;;;5050395;28;20384;-87
2020/12/05 06:35:21;;;;;;;;;;;;;;;;;;5058334;28;20380;-87
2020/12/05 06:37:48;;;;;;;;;;;;;;;;;;5060601;28;20383;-87
2020/12/05 06:40:14;;;;;;;;;;;;;;;;;;5069627;28;20411;-86
2020/12/05 06:42:41;;;;;;;;;;;;;;;;;;5063936;28;20396;-87
2020/12/05 06:45:07;;;;;;;;;;;;;;;;;;5055098;28;20400;-87
2020/12/05 06:47:34;;;;;;;;;;;;;;;;;;5045828;28;20410;-87
2020/12/05 06:50:00;;;;;;;;;;;;;;;;;;5057568;28;20396;-87
2020/12/05 06:52:26;;;;;;;;;;;;;;;;;;5070312;28;20380;-87
2020/12/05 06:54:53;;;;;;;;;;;;;;;;;;5068751;28;20905;-86
2020/12/05 06:57:19;;;;;;;;;;;;;;;;;;5054853;28;20392;-86
2020/12/05 06:59:46;;;;;;;;;;;;;;;;;;5069535;28;20401;-88
2020/12/05 07:02:13;;;;;;;;;;;;;;;;;;5062090;28;20404;-86
2020/12/05 07:04:39;;;;;;;;;;;;;;;;;;5079402;28;20381;-88
2020/12/05 07:07:06;;;;;;;;;;;;;;;;;;5049840;28;20805;-88
2020/12/05 07:09:32;;;;;;;;;;;;;;;;;;5052783;28;20397;-88
2020/12/05 07:11:59;;;;;;;;;;;;;;;;;;5071627;28;20414;-86
2020/12/05 07:14:26;;;;;;;;;;;;;;;;;;5062269;28;20399;-88
2020/12/05 07:16:52;;;;;;;;;;;;;;;;;;5059941;28;20388;-87
2020/12/05 07:19:18;;;;;;;;;;;;;;;;;;5069648;28;20420;-88
2020/12/05 07:21:46;;;;;;;;;;;;;;;;;;5072227;28;20877;-89
2020/12/05 07:24:13;;;;;;;;;;;;;;;;;;5063219;28;20384;-87
2020/12/05 07:26:39;;;;;;;;;;;;;;;;;;5062255;28;20399;-87
2020/12/05 07:29:05;;;;;;;;;;;;;;;;;;5061435;28;20776;-87
2020/12/05 07:31:32;;;;;;;;;;;;;;;;;;5076131;28;20435;-88
2020/12/05 07:33:58;;;;;;;;;;;;;;;;;;5080714;28;20854;-86
2020/12/05 07:36:24;;;;;;;;;;;;;;;;;;5080081;28;20752;-87
2020/12/05 07:38:51;;;;;;;;;;;;;;;;;;5087843;28;20401;-87
2020/12/05 07:41:17;;;;;;;;;;;;;;;;;;5063538;28;20864;-88
2020/12/05 07:43:44;;;;;;;;;;;;;;;;;;5055852;28;20387;-88
2020/12/05 07:46:10;;;;;;;;;;;;;;;;;;5059514;28;20382;-87
2020/12/05 07:48:37;;;;;;;;;;;;;;;;;;5085248;28;20482;-87
2020/12/05 07:51:03;;;;;;;;;;;;;;;;;;5081416;28;20439;-88
2020/12/05 07:53:29;;;;;;;;;;;;;;;;;;5072693;28;20403;-87
2020/12/05 07:55:56;;;;;;;;;;;;;;;;;;5060044;28;20389;-87
2020/12/05 07:58:22;;;;;;;;;;;;;;;;;;5061780;28;20419;-86
2020/12/05 08:00:49;;;;;;;;;;;;;;;;;;5060027;28;20397;-85
2020/12/05 08:03:15;;;;;;;;;;;;;;;;;;5062773;28;20902;-88
2020/12/05 08:05:43;;;;;;;;;;;;;;;;;;5062194;28;20377;-85
2020/12/05 08:08:09;;;;;;;;;;;;;;;;;;5059702;28;20380;-84
2020/12/05 08:10:36;;;;;;;;;;;;;;;;;;5060903;28;20729;-85
2020/12/05 08:13:02;;;;;;;;;;;;;;;;;;5060360;28;20438;-85
2020/12/05 08:15:29;;;;;;;;;;;;;;;;;;5050847;28;20394;-85
2020/12/05 08:17:55;;;;;;;;;;;;;;;;;;5059144;28;20380;-85
2020/12/05 08:20:22;;;;;;;;;;;;;;;;;;5057914;28;20415;-84
2020/12/05 08:22:48;;;;;;;;;;;;;;;;;;5055335;28;20663;-83
2020/12/05 08:25:14;;;;;;;;;;;;;;;;;;5046775;28;20387;-85
2020/12/05 08:27:41;;;;;;;;;;;;;;;;;;5059570;28;20380;-85
2020/12/05 08:30:08;;;;;;;;;;;;;;;;;;5053185;28;20409;-84
2020/12/05 08:32:36;;;;;;;;;;;;;;;;;;5068336;28;20476;-84
2020/12/05 08:35:02;;;;;;;;;;;;;;;;;;5048410;28;20380;-84
2020/12/05 08:37:28;;;;;;;;;;;;;;;;;;5059646;28;20383;-85
2020/12/05 08:39:55;;;;;;;;;;;;;;;;;;5047290;28;20868;-85
2020/12/05 08:42:21;;;;;;;;;;;;;;;;;;5040857;28;20398;-85
2020/12/05 08:44:49;;;;;;;;;;;;;;;;;;5055460;28;20376;-85
2020/12/05 08:47:15;;;;;;;;;;;;;;;;;;5050164;28;20386;-84
2020/12/05 08:49:42;;;;;;;;;;;;;;;;;;5060069;28;20884;-84
2020/12/05 08:52:08;;;;;;;;;;;;;;;;;;5071857;28;20377;-83
2020/12/05 08:54:35;;;;;;;;;;;;;;;;;;5064838;28;20387;-84
2020/12/05 08:57:01;;;;;;;;;;;;;;;;;;5042969;28;21057;-84
2020/12/05 08:59:27;;;;;;;;;;;;;;;;;;5040364;28;20415;-83
2020/12/05 09:01:54;;;;;;;;;;;;;;;;;;5049444;28;20401;-82
2020/12/05 09:04:21;;;;;;;;;;;;;;;;;;5046807;28;20477;-83
2020/12/05 09:06:48;;;;;;;;;;;;;;;;;;5040502;28;20379;-83
2020/12/05 09:09:14;;;;;;;;;;;;;;;;;;5040342;28;20524;-84
2020/12/05 09:11:41;;;;;;;;;;;;;;;;;;5050003;28;20382;-82
2020/12/05 09:14:07;;;;;;;;;;;;;;;;;;5065547;28;20391;-84
2020/12/05 09:16:33;;;;;;;;;;;;;;;;;;5052639;28;20393;-84
2020/12/05 09:19:00;;;;;;;;;;;;;;;;;;5071266;28;20415;-83
2020/12/05 09:21:30;;;;;;;;;;;;;;;;;;5076836;28;20391;-84
2020/12/05 09:23:58;;;;;;;;;;;;;;;;;;5055581;28;20380;-83
2020/12/05 09:26:25;;;;;;;;;;;;;;;;;;5058349;28;20468;-83
2020/12/05 09:28:51;;;;;;;;;;;;;;;;;;5057137;28;20407;-82
2020/12/05 09:31:18;;;;;;;;;;;;;;;;;;5057945;28;20367;-83
2020/12/05 09:33:52;;;;;;;;;;;;;;;;;;5061640;28;20387;-84
2020/12/05 09:36:18;;;;;;;;;;;;;;;;;;5055852;28;20372;-83
2020/12/05 09:38:45;;;;;;;;;;;;;;;;;;5058764;28;20792;-83
2020/12/05 09:41:11;;;;;;;;;;;;;;;;;;5058215;28;20402;-84
2020/12/05 09:43:37;;;;;;;;;;;;;;;;;;5090278;28;20403;-83
2020/12/05 09:46:04;;;;;;;;;;;;;;;;;;5080893;28;20391;-82
2020/12/05 09:48:30;;;;;;;;;;;;;;;;;;5065622;28;20457;-84
2020/12/05 09:50:56;;;;;;;;;;;;;;;;;;5051280;28;20391;-84
2020/12/05 09:53:23;;;;;;;;;;;;;;;;;;5072298;28;20435;-84
2020/12/05 09:55:49;;;;;;;;;;;;;;;;;;5069137;28;20390;-84
2020/12/05 09:58:16;;;;;;;;;;;;;;;;;;5065578;28;20830;-83
2020/12/05 10:00:42;;;;;;;;;;;;;;;;;;5056181;28;20382;-84
2020/12/05 10:03:09;;;;;;;;;;;;;;;;;;5071433;28;20787;-84
2020/12/05 10:05:36;;;;;;;;;;;;;;;;;;5064062;28;20393;-83
2020/12/05 10:08:03;;;;;;;;;;;;;;;;;;5059834;28;20843;-82
2020/12/05 10:10:29;;;;;;;;;;;;;;;;;;5064225;28;20406;-85
2020/12/05 10:12:58;;;;;;;;;;;;;;;;;;5064137;28;20372;-84
2020/12/05 10:15:24;;;;;;;;;;;;;;;;;;5047943;28;20408;-85
2020/12/05 10:17:51;;;;;;;;;;;;;;;;;;5055882;28;20387;-85
2020/12/05 10:20:17;;;;;;;;;;;;;;;;;;5063650;28;20446;-84
2020/12/05 10:22:44;;;;;;;;;;;;;;;;;;5058525;28;20803;-85
2020/12/05 10:25:10;;;;;;;;;;;;;;;;;;5049271;28;20383;-84
2020/12/05 10:27:38;;;;;;;;;;;;;;;;;;5060605;28;20393;-86
2020/12/05 10:30:04;;;;;;;;;;;;;;;;;;5063334;28;20483;-86
2020/12/05 10:32:30;;;;;;;;;;;;;;;;;;5065381;28;20385;-83
2020/12/05 10:34:57;;;;;;;;;;;;;;;;;;5055424;28;20841;-86
2020/12/05 10:37:23;;;;;;;;;;;;;;;;;;5068904;28;20426;-84
2020/12/05 10:39:50;;;;;;;;;;;;;;;;;;5064621;28;20395;-83
2020/12/05 10:42:16;;;;;;;;;;;;;;;;;;5066879;28;20397;-84
2020/12/05 10:44:43;;;;;;;;;;;;;;;;;;5056569;28;20792;-85
2020/12/05 10:47:10;;;;;;;;;;;;;;;;;;5062966;28;20385;-84
2020/12/05 10:49:36;;;;;;;;;;;;;;;;;;5059139;28;20407;-85
2020/12/05 10:52:03;;;;;;;;;;;;;;;;;;5065166;28;20455;-84
2020/12/05 10:54:31;;;;;;;;;;;;;;;;;;5072885;28;20385;-85
2020/12/05 10:56:58;;;;;;;;;;;;;;;;;;5063431;28;20448;-85
2020/12/05 10:59:25;;;;;;;;;;;;;;;;;;5072833;28;20413;-85
2020/12/05 11:01:51;;;;;;;;;;;;;;;;;;5059957;28;20407;-84
2020/12/05 11:04:18;;;;;;;;;;;;;;;;;;5047134;28;20396;-87
2020/12/05 11:06:44;;;;;;;;;;;;;;;;;;5061586;28;20373;-85
2020/12/05 11:09:11;;;;;;;;;;;;;;;;;;5062714;28;20416;-85
2020/12/05 11:11:38;;;;;;;;;;;;;;;;;;5063613;28;20385;-85
2020/12/05 11:14:04;;;;;;;;;;;;;;;;;;5056438;28;20403;-85
2020/12/05 11:16:31;;;;;;;;;;;;;;;;;;5051169;28;20417;-85
2020/12/05 11:18:57;;;;;;;;;;;;;;;;;;5053629;28;20446;-84
2020/12/05 11:21:24;;;;;;;;;;;;;;;;;;5053928;28;20408;-85
2020/12/05 11:23:50;;;;;;;;;;;;;;;;;;5063276;28;20389;-85
2020/12/05 11:26:17;;;;;;;;;;;;;;;;;;5057551;28;20384;-84
2020/12/05 11:28:43;;;;;;;;;;;;;;;;;;5054564;28;20397;-84
2020/12/05 11:31:09;;;;;;;;;;;;;;;;;;5052581;28;20760;-85
2020/12/05 11:33:36;;;;;;;;;;;;;;;;;;5047643;28;20379;-84
2020/12/05 11:36:02;;;;;;;;;;;;;;;;;;5060439;28;20434;-83
2020/12/05 11:38:29;;;;;;;;;;;;;;;;;;5055220;28;20400;-85
2020/12/05 11:40:56;;;;;;;;;;;;;;;;;;5050867;28;20420;-85
2020/12/05 11:43:24;;;;;;;;;;;;;;;;;;5052757;28;20372;-86
2020/12/05 11:45:54;;;;;;;;;;;;;;;;;;5055249;28;20416;-86
2020/12/05 11:48:20;;;;;;;;;;;;;;;;;;5059004;28;20380;-86
2020/12/05 11:50:47;;;;;;;;;;;;;;;;;;5050697;28;20387;-85
2020/12/05 11:53:14;;;;;;;;;;;;;;;;;;5047035;28;20390;-85
2020/12/05 11:55:41;;;;;;;;;;;;;;;;;;5068217;28;20395;-84
2020/12/05 11:58:07;;;;;;;;;;;;;;;;;;5061999;28;20387;-84
2020/12/05 12:00:33;;;;;;;;;;;;;;;;;;5050472;28;20379;-83
2020/12/05 12:03:00;;;;;;;;;;;;;;;;;;5050006;28;20399;-84
2020/12/05 12:05:26;;;;;;;;;;;;;;;;;;5066984;28;20383;-84
2020/12/05 12:07:53;;;;;;;;;;;;;;;;;;5056526;28;21129;-84
2020/12/05 12:10:19;;;;;;;;;;;;;;;;;;5069805;28;20415;-84
2020/12/05 12:12:46;;;;;;;;;;;;;;;;;;5084184;28;20396;-83
2020/12/05 12:15:12;;;;;;;;;;;;;;;;;;5057916;28;20424;-84
2020/12/05 12:17:38;;;;;;;;;;;;;;;;;;5067953;28;20384;-85
2020/12/05 12:20:05;;;;;;;;;;;;;;;;;;5060873;28;20415;-85
2020/12/05 12:22:31;;;;;;;;;;;;;;;;;;5054128;28;20399;-86
2020/12/05 12:24:59;;;;;;;;;;;;;;;;;;5053204;28;20377;-83
2020/12/05 12:27:25;;;;;;;;;;;;;;;;;;5050623;28;20449;-85
2020/12/05 12:29:52;;;;;;;;;;;;;;;;;;5053907;28;20419;-84
2020/12/05 12:32:18;;;;;;;;;;;;;;;;;;5066467;28;20384;-84
2020/12/05 12:34:46;;;;;;;;;;;;;;;;;;5065339;28;20372;-83
2020/12/05 12:37:12;;;;;;;;;;;;;;;;;;5062081;28;20443;-84
2020/12/05 12:39:38;;;;;;;;;;;;;;;;;;5057715;28;20489;-84
2020/12/05 12:42:05;;;;;;;;;;;;;;;;;;5045985;28;20875;-83
2020/12/05 12:44:31;;;;;;;;;;;;;;;;;;5054342;28;20395;-84
2020/12/05 12:47:10;;;;;;;;;;;;;;;;;;5053074;28;20391;-84
2020/12/05 12:49:39;;;;;;;;;;;;;;;;;;5060534;28;20419;-85
2020/12/05 12:52:06;;;;;;;;;;;;;;;;;;5060592;28;20379;-84
2020/12/05 12:57:47;;;;;;;;;;;;;;;;;;5048441;28;20452;-86
2020/12/05 13:00:13;;;;;;;;;;;;;;;;;;5051851;28;20407;-85
2020/12/05 13:02:39;;;;;;;;;;;;;;;;;;5050928;28;20822;-85
2020/12/05 13:05:06;;;;;;;;;;;;;;;;;;5060680;28;20414;-85
2020/12/05 13:07:32;;;;;;;;;;;;;;;;;;5050757;28;20391;-85
2020/12/05 13:09:59;;;;;;;;;;;;;;;;;;5058911;28;20810;-86
2020/12/05 13:12:25;;;;;;;;;;;;;;;;;;5054711;28;20417;-86
2020/12/05 13:14:52;;;;;;;;;;;;;;;;;;5051301;28;20373;-83
2020/12/05 13:17:18;;;;;;;;;;;;;;;;;;5050664;28;20388;-84
2020/12/05 13:19:44;;;;;;;;;;;;;;;;;;5054088;28;20507;-86
2020/12/05 13:22:11;;;;;;;;;;;;;;;;;;5055525;28;20439;-86
2020/12/05 13:24:37;;;;;;;;;;;;;;;;;;5058830;28;20387;-85
2020/12/05 13:27:04;;;;;;;;;;;;;;;;;;5055240;28;21050;-86
2020/12/05 13:29:30;;;;;;;;;;;;;;;;;;5056653;28;20433;-86
2020/12/05 13:31:56;;;;;;;;;;;;;;;;;;5049952;28;20839;-85
2020/12/05 13:34:23;;;;;;;;;;;;;;;;;;5052453;28;20385;-86
2020/12/05 13:36:51;;;;;;;;;;;;;;;;;;5060648;28;20383;-86
2020/12/05 13:39:18;;;;;;;;;;;;;;;;;;5046142;28;20438;-86
2020/12/05 13:41:44;;;;;;;;;;;;;;;;;;5044644;28;20553;-87
2020/12/05 13:44:11;;;;;;;;;;;;;;;;;;5040376;28;20391;-85
2020/12/05 13:46:37;;;;;;;;;;;;;;;;;;5044370;28;20395;-87
2020/12/05 13:49:04;;;;;;;;;;;;;;;;;;5047005;28;20888;-85
2020/12/05 13:51:30;;;;;;;;;;;;;;;;;;5059133;28;20388;-86
2020/12/05 13:53:58;;;;;;;;;;;;;;;;;;5057933;28;20384;-88
2020/12/05 13:56:25;;;;;;;;;;;;;;;;;;5053655;28;20390;-85
2020/12/05 13:58:51;;;;;;;;;;;;;;;;;;5058864;28;20404;-85
2020/12/05 14:01:17;;;;;;;;;;;;;;;;;;5056337;28;20406;-87
2020/12/05 14:03:44;;;;;;;;;;;;;;;;;;5037477;28;20863;-85
2020/12/05 14:06:10;;;;;;;;;;;;;;;;;;5063628;28;20356;-86
2020/12/05 14:08:36;;;;;;;;;;;;;;;;;;5055826;28;20403;-87
2020/12/05 14:11:04;;;;;;;;;;;;;;;;;;5070206;28;20388;-86
2020/12/05 14:13:31;;;;;;;;;;;;;;;;;;5070699;28;20384;-87
2020/12/05 14:15:57;;;;;;;;;;;;;;;;;;5070950;28;20391;-86
2020/12/05 14:18:24;;;;;;;;;;;;;;;;;;5054014;28;20388;-87
2020/12/05 14:20:52;;;;;;;;;;;;;;;;;;5060371;28;20403;-87
2020/12/05 14:23:18;;;;;;;;;;;;;;;;;;5056622;28;20481;-85
2020/12/05 14:25:45;;;;;;;;;;;;;;;;;;5045642;28;20729;-86
2020/12/05 14:28:11;;;;;;;;;;;;;;;;;;5054975;28;20906;-87
2020/12/05 14:30:39;;;;;;;;;;;;;;;;;;5065290;28;20391;-87
2020/12/05 14:33:06;;;;;;;;;;;;;;;;;;5073587;28;20381;-85
2020/12/05 14:35:32;;;;;;;;;;;;;;;;;;5073279;28;20380;-86
2020/12/05 14:37:59;;;;;;;;;;;;;;;;;;5072887;28;20404;-86
2020/12/05 14:40:25;;;;;;;;;;;;;;;;;;5076829;28;20394;-86
2020/12/05 14:42:52;;;;;;;;;;;;;;;;;;5084026;28;20461;-86
2020/12/05 14:45:19;;;;;;;;;;;;;;;;;;5076381;28;20370;-84
2020/12/05 14:47:45;;;;;;;;;;;;;;;;;;5090430;28;20369;-85
2020/12/05 14:50:12;;;;;;;;;;;;;;;;;;5074810;28;20418;-84
2020/12/05 14:52:38;;;;;;;;;;;;;;;;;;5055590;28;20395;-86
2020/12/05 14:55:04;;;;;;;;;;;;;;;;;;5051949;28;20380;-85
2020/12/05 14:57:31;;;;;;;;;;;;;;;;;;5061576;28;20843;-87
2020/12/05 14:59:57;;;;;;;;;;;;;;;;;;5049792;28;20415;-86
2020/12/05 15:02:24;;;;;;;;;;;;;;;;;;5088188;28;20396;-84
2020/12/05 15:04:50;;;;;;;;;;;;;;;;;;5080777;28;20471;-85
2020/12/05 15:07:16;;;;;;;;;;;;;;;;;;5062440;28;20385;-83
2020/12/05 15:09:43;;;;;;;;;;;;;;;;;;5059834;28;20404;-84
2020/12/05 15:12:09;;;;;;;;;;;;;;;;;;5066605;28;20837;-86
2020/12/05 15:14:36;;;;;;;;;;;;;;;;;;5079683;28;20370;-84
2020/12/05 15:17:03;;;;;;;;;;;;;;;;;;5060927;28;20383;-85
2020/12/05 15:19:29;;;;;;;;;;;;;;;;;;5067886;28;20468;-84
2020/12/05 15:21:56;;;;;;;;;;;;;;;;;;5073485;28;20477;-87
2020/12/05 15:24:22;;;;;;;;;;;;;;;;;;5063003;28;20388;-86
2020/12/05 15:26:49;;;;;;;;;;;;;;;;;;5077576;28;20410;-84
2020/12/05 15:29:15;;;;;;;;;;;;;;;;;;5075566;28;20393;-85
2020/12/05 15:31:41;;;;;;;;;;;;;;;;;;5078367;28;20387;-86
2020/12/05 15:34:08;;;;;;;;;;;;;;;;;;5065941;28;20388;-86
2020/12/05 15:36:34;;;;;;;;;;;;;;;;;;5086007;22;20388;-84
2020/12/05 16:06:28;;;;;;;;;;;;;;;;;;4920468;29;20411;-85
2020/12/05 16:08:54;;;;;;;;;;;;;;;;;;4919447;29;20431;-83
2020/12/05 16:11:22;;;;;;;;;;;;;;;;;;4917188;29;20892;-84
2020/12/05 16:13:48;;;;;;;;;;;;;;;;;;4920406;29;20395;-86
2020/12/05 16:16:14;;;;;;;;;;;;;;;;;;4918374;29;20408;-85
2020/12/05 16:18:41;;;;;;;;;;;;;;;;;;4917221;29;20419;-86
2020/12/05 16:21:07;;;;;;;;;;;;;;;;;;4932615;29;20406;-86
2020/12/05 16:23:34;;;;;;;;;;;;;;;;;;4958966;28;20398;-86
2020/12/05 16:28:45;;;;;;;;;;;;;;;;;;4956675;28;20448;-85
2020/12/05 16:31:11;;;;;;;;;;;;;;;;;;4954319;29;20394;-85
2020/12/05 16:52:51;;;;;;;;;;;;;;;;;;4999266;28;20391;-85
2020/12/05 16:55:17;;;;;;;;;;;;;;;;;;5031433;28;20433;-85
2020/12/05 16:57:43;;;;;;;;;;;;;;;;;;5027904;28;20439;-86
2020/12/05 17:00:10;;;;;;;;;;;;;;;;;;5036679;28;20391;-85
2020/12/05 17:02:36;;;;;;;;;;;;;;;;;;5026409;28;20474;-85
2020/12/05 17:05:03;;;;;;;;;;;;;;;;;;5030458;28;20413;-85
2020/12/05 17:07:29;;;;;;;;;;;;;;;;;;5022353;28;20449;-85
2020/12/05 17:09:55;;;;;;;;;;;;;;;;;;5031215;28;20415;-86
2020/12/05 17:12:22;;;;;;;;;;;;;;;;;;5032303;28;20859;-85
2020/12/05 17:14:48;;;;;;;;;;;;;;;;;;5019954;28;20390;-86
2020/12/05 17:17:15;;;;;;;;;;;;;;;;;;5019414;28;20405;-86
2020/12/05 17:19:41;;;;;;;;;;;;;;;;;;5023313;28;20440;-86
2020/12/05 17:22:08;;;;;;;;;;;;;;;;;;5024273;28;20778;-87
2020/12/05 17:24:34;;;;;;;;;;;;;;;;;;5020353;28;20409;-89
2020/12/05 17:27:00;;;;;;;;;;;;;;;;;;5032284;28;20417;-84
2020/12/05 17:29:27;;;;;;;;;;;;;;;;;;5036715;28;20490;-85
2020/12/05 17:31:54;;;;;;;;;;;;;;;;;;5039306;28;20393;-84
2020/12/05 17:34:26;;;;;;;;;;;;;;;;;;5027097;28;20412;-88